Time;durP1;ratioP1;P1;durP2;ratioP2;P2;SDS_P1;SDS_P2;PMS_P1;PMS_P2;Temp;Humidity;BMP_temperature;BMP_pressure;BME280_temperature;BME280_humidity;BME280_pressure;Samples;Min_cycle;Max_cycle;Signal;HPM_P1;HPM_P2
2021/06/01 00:01:52;;;;;;;21.35;11.68;;;9.60;99.90;;;;;;5011873;28;20030;-81
2021/06/01 00:04:18;;;;;;;18.00;12.07;;;9.60;99.90;;;;;;5010342;28;20037;-81
2021/06/01 00:06:44;;;;;;;22.48;12.82;;;9.50;99.90;;;;;;5011726;28;20034;-81
2021/06/01 00:09:13;;;;;;;17.25;11.45;;;9.50;99.90;;;;;;5011012;28;20416;-81
2021/06/01 00:11:39;;;;;;;19.48;12.32;;;9.50;99.90;;;;;;5010514;28;20487;-81
2021/06/01 00:14:06;;;;;;;19.20;12.45;;;9.40;99.90;;;;;;5013889;28;20034;-81
2021/06/01 00:16:33;;;;;;;19.33;11.13;;;9.40;99.90;;;;;;5014644;28;20018;-81
2021/06/01 00:18:58;;;;;;;20.05;12.52;;;9.40;99.90;;;;;;5014688;28;20030;-80
2021/06/01 00:21:24;;;;;;;18.85;12.57;;;9.50;99.90;;;;;;5015699;28;20029;-80
2021/06/01 00:23:53;;;;;;;19.30;13.32;;;9.50;99.90;;;;;;5015764;28;20604;-81
2021/06/01 00:26:19;;;;;;;20.95;12.68;;;9.50;99.90;;;;;;5014701;28;20498;-81
2021/06/01 00:28:45;;;;;;;23.20;13.95;;;9.40;99.90;;;;;;5015803;28;20026;-81
2021/06/01 00:31:10;;;;;;;20.33;12.57;;;9.40;99.90;;;;;;5014180;28;20448;-81
2021/06/01 00:33:37;;;;;;;19.08;12.43;;;9.40;99.90;;;;;;5015694;28;20018;-80
2021/06/01 00:36:03;;;;;;;20.15;13.10;;;9.30;99.90;;;;;;5015353;28;20034;-80
2021/06/01 00:38:28;;;;;;;28.92;12.63;;;9.30;99.90;;;;;;5015336;28;20087;-80
2021/06/01 00:40:55;;;;;;;23.83;13.63;;;9.20;99.90;;;;;;5014323;28;20028;-80
2021/06/01 00:43:21;;;;;;;20.33;12.38;;;9.20;99.90;;;;;;5014234;28;20075;-81
2021/06/01 00:45:46;;;;;;;18.45;12.80;;;9.10;99.90;;;;;;5014113;28;20121;-81
2021/06/01 00:48:12;;;;;;;29.70;15.13;;;9.00;99.90;;;;;;5014797;28;20104;-81
2021/06/01 00:50:38;;;;;;;24.75;13.75;;;9.00;99.90;;;;;;5015323;28;20119;-81
2021/06/01 00:53:06;;;;;;;24.50;14.10;;;8.90;99.90;;;;;;5015567;28;20030;-81
2021/06/01 00:55:32;;;;;;;20.58;13.43;;;9.00;99.90;;;;;;5013791;28;20022;-81
2021/06/01 00:57:57;;;;;;;22.92;13.75;;;9.00;99.90;;;;;;5014930;28;20033;-80
2021/06/01 01:03:09;;;;;;;20.45;13.75;;;8.90;99.90;;;;;;5015557;28;20076;-80
2021/06/01 01:05:38;;;;;;;21.67;13.75;;;8.90;99.90;;;;;;5014472;28;20026;-81
2021/06/01 01:11:01;;;;;;;25.13;14.65;;;8.90;99.90;;;;;;5015057;28;20394;-81
2021/06/01 01:13:31;;;;;;;19.05;12.18;;;8.80;99.90;;;;;;5014966;28;20041;-81
2021/06/01 01:15:56;;;;;;;16.70;12.20;;;8.90;99.90;;;;;;5014799;28;20036;-80
2021/06/01 01:18:24;;;;;;;23.77;14.00;;;8.80;99.90;;;;;;5013530;28;20029;-81
2021/06/01 01:21:07;;;;;;;25.80;14.40;;;8.90;99.90;;;;;;5014596;28;20057;-80
2021/06/01 01:23:35;;;;;;;20.43;13.63;;;8.90;99.90;;;;;;5013085;28;20037;-80
2021/06/01 01:26:08;;;;;;;17.35;12.55;;;8.80;99.90;;;;;;5012625;28;20327;-80
2021/06/01 01:28:59;;;;;;;19.07;13.47;;;8.80;99.90;;;;;;5014605;28;20096;-81
2021/06/01 01:31:33;;;;;;;18.85;13.60;;;8.70;99.90;;;;;;5013441;28;20168;-80
2021/06/01 01:34:00;;;;;;;21.02;13.30;;;8.60;99.90;;;;;;5014141;28;20353;-80
2021/06/01 01:36:29;;;;;;;18.63;13.25;;;8.60;99.90;;;;;;5013072;28;20042;-80
2021/06/01 01:38:56;;;;;;;16.77;12.13;;;8.60;99.90;;;;;;5013517;28;20137;-80
2021/06/01 01:41:22;;;;;;;22.42;13.02;;;8.50;99.90;;;;;;5013129;28;20030;-80
2021/06/01 01:43:51;;;;;;;21.05;12.57;;;8.50;99.90;;;;;;5012824;28;20033;-81
2021/06/01 01:49:02;;;;;;;21.73;14.30;;;8.50;99.90;;;;;;5014672;28;20080;-80
2021/06/01 01:51:43;;;;;;;19.55;14.32;;;8.40;99.90;;;;;;5012617;28;20032;-80
2021/06/01 01:54:14;;;;;;;25.10;14.50;;;8.40;99.90;;;;;;5013995;28;20054;-80
2021/06/01 01:56:50;;;;;;;21.77;13.00;;;8.50;99.90;;;;;;5014162;28;20022;-80
2021/06/01 01:59:19;;;;;;;20.25;12.57;;;8.50;99.90;;;;;;5012851;28;20044;-80
2021/06/01 02:01:48;;;;;;;24.35;12.20;;;8.60;99.90;;;;;;5012608;28;20026;-80
2021/06/01 02:04:17;;;;;;;29.08;15.07;;;8.60;99.90;;;;;;5013877;28;20053;-80
2021/06/01 02:06:42;;;;;;;20.80;11.50;;;8.60;99.90;;;;;;5013675;28;20057;-81
2021/06/01 02:09:08;;;;;;;19.55;11.00;;;8.60;99.90;;;;;;5012624;28;20056;-80
2021/06/01 02:11:34;;;;;;;15.27;10.73;;;8.50;99.90;;;;;;5012475;28;20022;-81
2021/06/01 02:14:03;;;;;;;20.52;11.93;;;8.40;99.90;;;;;;5013574;28;20026;-81
2021/06/01 02:16:31;;;;;;;18.13;13.30;;;8.40;99.90;;;;;;5012454;28;20554;-80
2021/06/01 02:18:57;;;;;;;29.05;15.13;;;8.30;99.90;;;;;;5012541;28;20483;-80
2021/06/01 02:24:46;;;;;;;20.08;13.95;;;8.20;99.90;;;;;;5013699;28;20088;-81
2021/06/01 02:27:32;;;;;;;21.10;12.55;;;8.10;99.90;;;;;;5012380;28;20029;-80
2021/06/01 02:30:03;;;;;;;23.05;13.65;;;8.20;99.90;;;;;;5012101;28;20037;-80
2021/06/01 02:32:41;;;;;;;17.05;13.23;;;8.20;99.90;;;;;;5012184;28;20467;-80
2021/06/01 02:35:15;;;;;;;22.77;14.20;;;8.20;99.90;;;;;;5007107;28;20509;-80
2021/06/01 02:37:43;;;;;;;20.27;14.05;;;8.10;99.90;;;;;;4992346;28;20031;-80
2021/06/01 02:40:11;;;;;;;25.75;13.77;;;8.10;99.90;;;;;;4991405;28;20054;-80
2021/06/01 02:42:38;;;;;;;25.73;13.55;;;8.10;99.90;;;;;;5011260;28;20025;-81
2021/06/01 02:45:05;;;;;;;21.48;13.77;;;8.10;99.90;;;;;;5011699;28;20125;-80
2021/06/01 02:47:31;;;;;;;21.88;13.60;;;8.00;99.90;;;;;;5011601;28;20030;-80
2021/06/01 02:49:57;;;;;;;19.50;13.20;;;8.00;99.90;;;;;;5012952;28;20136;-80
2021/06/01 02:52:23;;;;;;;18.80;11.13;;;8.00;99.90;;;;;;5011960;28;20445;-80
2021/06/01 02:54:49;;;;;;;15.57;11.88;;;8.00;99.90;;;;;;5011495;28;20030;-80
2021/06/01 02:57:19;;;;;;;22.55;13.45;;;8.00;99.90;;;;;;5028248;28;20386;-80
2021/06/01 02:59:45;;;;;;;22.08;12.55;;;8.00;99.90;;;;;;5011408;28;20053;-80
2021/06/01 03:02:11;;;;;;;19.48;13.55;;;7.90;99.90;;;;;;5013017;28;20030;-80
2021/06/01 03:04:48;;;;;;;23.38;14.43;;;7.90;99.90;;;;;;5011276;28;20105;-81
2021/06/01 03:07:14;;;;;;;29.15;14.73;;;7.90;99.90;;;;;;5011713;28;20037;-80
2021/06/01 03:09:40;;;;;;;20.23;13.90;;;7.90;99.90;;;;;;5011622;28;20120;-80
2021/06/01 03:12:07;;;;;;;17.30;11.93;;;7.90;99.90;;;;;;5012694;28;20036;-80
2021/06/01 03:14:33;;;;;;;22.45;14.50;;;7.80;99.90;;;;;;5012609;28;20025;-80
2021/06/01 03:16:58;;;;;;;22.00;15.00;;;7.80;99.90;;;;;;5012410;28;20030;-80
2021/06/01 03:19:24;;;;;;;21.45;14.00;;;7.80;99.90;;;;;;5011481;28;20022;-80
2021/06/01 03:21:50;;;;;;;21.40;14.27;;;7.80;99.90;;;;;;5011325;28;20037;-80
2021/06/01 03:24:15;;;;;;;27.45;15.88;;;7.80;99.90;;;;;;5011136;28;20026;-81
2021/06/01 03:26:41;;;;;;;23.77;15.70;;;7.80;99.90;;;;;;5009925;28;20117;-80
2021/06/01 03:29:06;;;;;;;25.27;13.88;;;7.80;99.90;;;;;;5012554;28;20026;-80
2021/06/01 03:31:32;;;;;;;21.73;14.23;;;7.80;99.90;;;;;;5011289;28;20367;-80
2021/06/01 03:33:58;;;;;;;24.67;15.13;;;7.70;99.90;;;;;;5012240;28;20036;-80
2021/06/01 03:36:24;;;;;;;23.08;14.70;;;7.80;99.90;;;;;;5010760;28;20128;-80
2021/06/01 03:38:51;;;;;;;21.52;13.05;;;7.80;99.90;;;;;;5012454;28;20025;-80
2021/06/01 03:41:16;;;;;;;19.27;13.45;;;7.80;99.90;;;;;;5012263;28;20018;-80
2021/06/01 03:43:42;;;;;;;25.58;14.50;;;7.80;99.90;;;;;;5011001;28;20025;-80
2021/06/01 03:46:08;;;;;;;23.90;15.35;;;7.80;99.90;;;;;;5011138;28;20041;-80
2021/06/01 03:48:34;;;;;;;19.38;13.48;;;7.80;99.90;;;;;;5011742;28;20045;-80
2021/06/01 03:50:59;;;;;;;27.42;15.30;;;7.90;99.90;;;;;;5010825;28;20410;-80
2021/06/01 03:53:28;;;;;;;21.90;14.88;;;7.90;99.90;;;;;;5010902;28;20033;-80
2021/06/01 03:55:54;;;;;;;25.92;15.57;;;7.80;99.90;;;;;;5010361;28;20175;-80
2021/06/01 03:58:20;;;;;;;27.52;15.48;;;7.90;99.90;;;;;;5010813;28;20113;-81
2021/06/01 04:00:45;;;;;;;25.05;14.57;;;7.90;99.90;;;;;;5010944;28;20445;-80
2021/06/01 04:03:11;;;;;;;31.15;16.00;;;7.90;99.90;;;;;;5012117;28;20149;-80
2021/06/01 04:05:36;;;;;;;30.33;16.08;;;8.00;99.90;;;;;;5010498;28;20518;-80
2021/06/01 04:08:05;;;;;;;24.98;16.90;;;8.00;99.90;;;;;;5011962;28;20030;-80
2021/06/01 04:10:32;;;;;;;29.20;17.10;;;8.10;99.90;;;;;;5010703;28;20026;-80
2021/06/01 04:12:58;;;;;;;28.65;16.73;;;8.20;99.90;;;;;;5012037;28;20025;-80
2021/06/01 04:15:23;;;;;;;31.48;17.65;;;8.30;99.90;;;;;;5010045;28;20037;-80
2021/06/01 04:17:49;;;;;;;38.47;18.92;;;8.30;99.90;;;;;;5011549;28;20025;-80
2021/06/01 04:20:14;;;;;;;61.35;27.00;;;8.40;99.90;;;;;;5010519;28;20038;-81
2021/06/01 04:22:40;;;;;;;40.10;22.77;;;8.50;99.90;;;;;;5011848;28;20026;-80
2021/06/01 04:25:07;;;;;;;40.60;21.67;;;8.60;99.90;;;;;;5010408;28;20582;-81
2021/06/01 04:27:34;;;;;;;39.35;21.73;;;8.70;99.90;;;;;;5010813;28;20437;-80
2021/06/01 04:29:59;;;;;;;35.75;22.98;;;8.90;99.90;;;;;;5011635;28;20030;-81
2021/06/01 04:32:25;;;;;;;33.30;21.40;;;8.90;99.90;;;;;;5010581;28;20084;-81
2021/06/01 04:34:51;;;;;;;39.13;24.48;;;9.00;99.90;;;;;;5010148;28;20100;-81
2021/06/01 04:37:16;;;;;;;33.40;21.20;;;9.10;99.90;;;;;;5010594;28;20034;-80
2021/06/01 04:39:42;;;;;;;37.13;21.75;;;9.20;99.90;;;;;;5010461;28;20025;-81
2021/06/01 04:42:07;;;;;;;34.58;22.02;;;9.30;99.90;;;;;;5010732;28;20030;-81
2021/06/01 04:44:33;;;;;;;38.53;23.23;;;9.40;99.90;;;;;;5010292;28;20030;-81
2021/06/01 04:46:59;;;;;;;39.35;24.27;;;9.50;99.90;;;;;;5011344;28;20049;-81
2021/06/01 04:49:24;;;;;;;33.13;23.55;;;9.60;99.90;;;;;;5011733;28;20037;-81
2021/06/01 04:51:50;;;;;;;47.72;25.08;;;9.80;99.90;;;;;;5010204;28;20030;-81
2021/06/01 04:54:15;;;;;;;43.30;25.33;;;9.90;99.90;;;;;;5011275;28;20033;-81
2021/06/01 04:56:41;;;;;;;44.13;26.80;;;10.10;99.90;;;;;;5010030;28;20030;-81
2021/06/01 04:59:06;;;;;;;40.50;26.70;;;10.40;99.90;;;;;;5010630;28;20076;-81
2021/06/01 05:01:32;;;;;;;42.22;27.33;;;10.40;99.90;;;;;;5013810;28;20406;-81
2021/06/01 05:03:58;;;;;;;46.15;29.15;;;10.60;99.90;;;;;;5013754;28;20029;-82
2021/06/01 05:06:23;;;;;;;47.15;27.15;;;10.70;99.90;;;;;;5013544;28;20076;-81
2021/06/01 05:08:49;;;;;;;46.42;27.17;;;10.90;99.90;;;;;;5013809;28;20118;-81
2021/06/01 05:11:15;;;;;;;48.53;25.63;;;11.00;99.90;;;;;;5014741;28;20026;-82
2021/06/01 05:13:41;;;;;;;51.95;29.17;;;11.10;99.90;;;;;;5014984;28;20481;-81
2021/06/01 05:16:06;;;;;;;49.53;28.15;;;11.30;99.90;;;;;;5013532;28;20034;-81
2021/06/01 05:18:32;;;;;;;49.55;27.05;;;11.40;99.90;;;;;;5013564;28;20032;-81
2021/06/01 05:20:58;;;;;;;42.00;26.48;;;11.50;99.90;;;;;;5013355;28;20026;-82
2021/06/01 05:23:23;;;;;;;51.85;27.75;;;11.60;99.90;;;;;;5013547;28;20057;-82
2021/06/01 05:25:49;;;;;;;43.60;27.63;;;11.80;99.90;;;;;;5014675;28;20065;-82
2021/06/01 05:28:15;;;;;;;49.50;27.05;;;11.90;99.90;;;;;;5014711;28;20498;-82
2021/06/01 05:30:54;;;;;;;41.25;24.70;;;12.10;99.90;;;;;;5013016;28;20026;-82
2021/06/01 05:33:24;;;;;;;51.28;28.30;;;12.20;99.90;;;;;;5013491;28;20517;-82
2021/06/01 05:35:53;;;;;;;51.17;27.67;;;12.40;99.90;;;;;;5012602;28;20502;-82
2021/06/01 05:38:21;;;;;;;56.00;27.10;;;12.70;99.90;;;;;;5014589;28;20081;-82
2021/06/01 05:40:47;;;;;;;52.25;25.48;;;12.90;99.90;;;;;;5014363;28;20526;-82
2021/06/01 05:43:12;;;;;;;42.28;24.73;;;13.00;99.90;;;;;;5014469;28;20025;-82
2021/06/01 05:45:38;;;;;;;35.53;20.88;;;13.30;99.90;;;;;;5014248;28;20021;-82
2021/06/01 05:48:08;;;;;;;28.75;19.17;;;13.40;99.90;;;;;;5014368;28;20026;-82
2021/06/01 05:50:35;;;;;;;24.02;18.70;;;13.50;99.90;;;;;;5005469;28;21098;-81
2021/06/01 05:53:01;;;;;;;22.55;17.40;;;13.70;99.90;;;;;;5009333;28;20155;-82
2021/06/01 05:55:28;;;;;;;23.60;15.05;;;13.90;99.90;;;;;;5008769;28;20116;-82
2021/06/01 05:57:54;;;;;;;23.33;14.18;;;14.00;99.90;;;;;;5007396;28;20021;-81
2021/06/01 06:00:21;;;;;;;22.35;11.07;;;14.10;99.90;;;;;;5008973;28;20029;-81
2021/06/01 06:02:46;;;;;;;15.30;10.40;;;14.20;99.90;;;;;;5007850;28;20034;-81
2021/06/01 06:05:13;;;;;;;28.23;13.02;;;14.30;99.90;;;;;;5010173;28;20042;-83
2021/06/01 06:07:41;;;;;;;14.27;10.52;;;14.50;99.90;;;;;;5009252;28;20084;-82
2021/06/01 06:10:08;;;;;;;17.55;11.07;;;14.70;99.90;;;;;;5008920;28;20034;-82
2021/06/01 06:12:34;;;;;;;18.15;10.98;;;14.80;99.90;;;;;;5009382;28;20148;-82
2021/06/01 06:15:10;;;;;;;17.42;9.75;;;14.80;99.90;;;;;;5010778;28;20398;-82
2021/06/01 06:17:39;;;;;;;14.13;9.07;;;15.10;99.90;;;;;;5009366;28;20060;-82
2021/06/01 06:20:07;;;;;;;13.65;8.27;;;15.20;99.90;;;;;;5010322;28;20026;-82
2021/06/01 06:22:33;;;;;;;12.35;8.02;;;15.40;99.90;;;;;;5009395;28;20026;-82
2021/06/01 06:25:00;;;;;;;10.98;7.15;;;15.60;99.90;;;;;;5009178;28;20061;-81
2021/06/01 06:27:26;;;;;;;14.80;6.53;;;15.80;99.90;;;;;;5010493;28;20054;-82
2021/06/01 06:29:51;;;;;;;10.45;5.57;;;16.00;99.90;;;;;;5010161;28;20069;-81
2021/06/01 06:32:17;;;;;;;9.60;5.25;;;16.40;99.90;;;;;;5010568;28;20037;-81
2021/06/01 06:34:44;;;;;;;12.77;5.47;;;16.30;99.90;;;;;;5008550;28;20065;-82
2021/06/01 06:37:12;;;;;;;6.47;4.65;;;16.60;99.90;;;;;;5008984;28;20046;-82
2021/06/01 06:39:37;;;;;;;6.82;4.45;;;16.60;99.90;;;;;;5008957;28;20034;-82
2021/06/01 06:42:04;;;;;;;6.63;3.83;;;16.70;99.90;;;;;;5010372;28;20030;-81
2021/06/01 06:44:32;;;;;;;9.73;4.40;;;16.70;99.90;;;;;;5009447;28;20479;-82
2021/06/01 06:47:21;;;;;;;6.07;2.35;;;16.80;99.90;;;;;;5011610;28;20398;-82
2021/06/01 06:49:47;;;;;;;6.28;2.83;;;16.80;99.90;;;;;;5011716;28;20025;-82
2021/06/01 06:52:18;;;;;;;6.90;3.10;;;17.00;99.90;;;;;;5013060;28;20029;-82
2021/06/01 06:57:37;;;;;;;8.18;3.45;;;17.00;99.90;;;;;;5013165;28;20060;-80
2021/06/01 07:00:12;;;;;;;4.93;2.10;;;17.20;99.90;;;;;;5012739;28;20109;-80
2021/06/01 07:02:38;;;;;;;9.55;2.42;;;17.30;99.90;;;;;;5011809;28;20029;-80
2021/06/01 07:05:05;;;;;;;6.25;2.30;;;17.40;99.90;;;;;;5010945;28;20038;-81
2021/06/01 07:07:31;;;;;;;6.22;2.30;;;17.60;99.90;;;;;;5012781;28;20018;-80
2021/06/01 07:09:56;;;;;;;6.93;2.72;;;17.80;99.90;;;;;;5011624;28;20445;-82
2021/06/01 07:12:27;;;;;;;6.25;2.67;;;17.80;99.90;;;;;;5011114;28;20036;-81
2021/06/01 07:15:12;;;;;;;8.27;2.38;;;18.00;99.90;;;;;;5010533;28;20026;-79
2021/06/01 07:17:44;;;;;;;7.93;1.98;;;18.20;99.90;;;;;;5027717;28;20522;-79
2021/06/01 07:20:15;;;;;;;12.70;3.15;;;18.40;99.90;;;;;;5012217;28;20368;-79
2021/06/01 07:22:40;;;;;;;18.00;2.20;;;18.60;99.90;;;;;;4991103;28;20033;-80
2021/06/01 07:25:07;;;;;;;5.40;2.20;;;18.60;99.90;;;;;;5006444;28;20030;-79
2021/06/01 07:27:36;;;;;;;5.38;2.38;;;18.50;99.90;;;;;;5012396;28;20057;-80
2021/06/01 07:30:02;;;;;;;7.28;2.70;;;18.40;99.90;;;;;;5012344;28;20501;-79
2021/06/01 07:32:28;;;;;;;9.23;2.90;;;18.40;99.90;;;;;;5002174;28;20034;-78
2021/06/01 07:34:54;;;;;;;6.63;2.50;;;18.60;99.90;;;;;;4991245;28;20034;-81
2021/06/01 07:37:19;;;;;;;5.20;2.30;;;18.60;99.90;;;;;;4991487;28;20080;-82
2021/06/01 07:39:45;;;;;;;7.70;2.78;;;18.80;99.90;;;;;;4991578;28;20027;-82
2021/06/01 07:42:11;;;;;;;4.65;2.58;;;18.80;99.90;;;;;;4996240;28;20507;-82
2021/06/01 07:44:36;;;;;;;6.78;2.45;;;18.90;99.90;;;;;;5027403;28;20068;-82
2021/06/01 07:47:03;;;;;;;6.63;2.58;;;19.00;99.90;;;;;;5009329;28;20490;-82
2021/06/01 07:49:28;;;;;;;5.47;3.05;;;18.90;99.90;;;;;;5006822;28;20029;-82
2021/06/01 07:51:54;;;;;;;6.50;2.63;;;19.00;99.90;;;;;;5006990;28;20028;-82
2021/06/01 07:54:20;;;;;;;7.72;3.10;;;19.10;99.90;;;;;;5008124;28;20050;-81
2021/06/01 07:56:46;;;;;;;10.38;3.50;;;19.50;99.90;;;;;;5003109;28;20076;-82
2021/06/01 07:59:12;;;;;;;4.28;2.92;;;19.70;99.90;;;;;;5006676;28;20125;-81
2021/06/01 08:01:38;;;;;;;7.45;3.72;;;20.20;99.90;;;;;;5007845;28;20072;-80
2021/06/01 08:04:03;;;;;;;7.00;3.10;;;20.30;99.90;;;;;;5007466;28;20026;-81
2021/06/01 08:06:33;;;;;;;7.97;3.85;;;20.60;99.90;;;;;;5009199;28;20036;-80
2021/06/01 08:08:59;;;;;;;5.32;3.08;;;20.60;99.90;;;;;;5008234;28;20076;-81
2021/06/01 08:11:24;;;;;;;4.55;3.00;;;20.50;99.90;;;;;;5006113;28;20406;-81
2021/06/01 08:13:50;;;;;;;9.93;4.15;;;20.80;99.90;;;;;;5006362;28;20026;-83
2021/06/01 08:16:15;;;;;;;7.80;3.63;;;20.90;99.90;;;;;;5007345;28;20117;-83
2021/06/01 08:18:48;;;;;;;3.63;2.10;;;21.10;99.90;;;;;;5007894;28;20021;-83
2021/06/01 08:21:17;;;;;;;4.60;2.40;;;21.20;99.90;;;;;;5007524;28;20556;-82
2021/06/01 08:23:43;;;;;;;5.70;2.20;;;21.20;99.90;;;;;;5007391;28;20037;-82
2021/06/01 08:26:08;;;;;;;3.13;1.98;;;21.10;99.90;;;;;;5008870;28;20030;-82
2021/06/01 08:28:34;;;;;;;5.65;2.30;;;21.50;99.90;;;;;;5010657;28;20026;-82
2021/06/01 08:31:03;;;;;;;5.90;2.30;;;21.40;99.90;;;;;;5010678;28;20487;-84
2021/06/01 08:33:29;;;;;;;6.35;2.15;;;21.60;99.90;;;;;;5011489;28;20029;-83
2021/06/01 09:22:34;;;;;;;5.93;2.33;;;23.50;99.90;;;;;;5011187;28;20034;-81
2021/06/01 09:25:04;;;;;;;5.28;3.05;;;23.40;99.90;;;;;;5027022;28;20072;-81
2021/06/01 09:27:41;;;;;;;6.45;2.50;;;23.40;99.90;;;;;;5009980;28;20041;-83
2021/06/01 09:30:07;;;;;;;18.45;3.40;;;23.80;99.90;;;;;;5009991;28;20430;-84
2021/06/01 09:32:41;;;;;;;5.97;3.17;;;23.70;99.90;;;;;;5010129;28;20036;-84
2021/06/01 09:35:07;;;;;;;6.03;3.22;;;23.50;99.90;;;;;;5009487;28;20083;-83
2021/06/01 09:37:35;;;;;;;6.32;3.33;;;23.50;99.90;;;;;;5008990;28;20115;-83
2021/06/01 09:40:11;;;;;;;5.15;2.90;;;23.70;99.90;;;;;;5006275;28;20025;-82
2021/06/01 09:42:39;;;;;;;6.40;3.70;;;23.60;99.90;;;;;;5011532;28;20022;-82
2021/06/01 09:45:24;;;;;;;6.47;3.22;;;23.80;99.90;;;;;;5008740;28;20034;-83
2021/06/01 09:48:01;;;;;;;14.70;3.65;;;24.00;99.90;;;;;;5003095;28;20064;-82
2021/06/01 09:53:02;;;;;;;6.95;2.58;;;24.20;99.90;;;;;;5010827;28;20022;-83
2021/06/01 09:55:36;;;;;;;3.90;2.47;;;24.10;99.90;;;;;;5008980;28;20041;-82
2021/06/01 09:58:07;;;;;;;5.82;2.47;;;23.80;99.90;;;;;;5005658;28;20018;-81
2021/06/01 10:00:36;;;;;;;7.95;3.22;;;23.80;99.90;;;;;;5010892;28;20030;-82
2021/06/01 10:03:04;;;;;;;4.55;2.50;;;23.90;99.90;;;;;;5014157;28;20018;-82
2021/06/01 10:05:38;;;;;;;2.88;2.20;;;24.20;99.90;;;;;;5012628;28;20030;-82
2021/06/01 10:08:13;;;;;;;4.05;2.90;;;24.40;99.90;;;;;;5013980;28;20033;-82
2021/06/01 10:10:39;;;;;;;8.48;2.80;;;24.30;99.90;;;;;;5012674;28;20033;-82
2021/06/01 10:13:08;;;;;;;6.38;2.75;;;24.30;99.80;;;;;;5012656;28;20030;-82
2021/06/01 10:16:01;;;;;;;4.88;2.60;;;24.30;99.90;;;;;;5014033;28;20375;-83
2021/06/01 10:18:30;;;;;;;5.38;3.05;;;24.30;97.60;;;;;;5005766;28;20490;-83
2021/06/01 10:21:02;;;;;;;5.38;2.70;;;24.50;99.90;;;;;;4993246;28;20038;-84
2021/06/01 10:23:38;;;;;;;13.50;3.25;;;24.40;99.90;;;;;;4992995;28;20031;-84
2021/06/01 10:26:06;;;;;;;5.28;3.38;;;24.20;99.90;;;;;;4994185;28;20069;-82
2021/06/01 10:28:37;;;;;;;10.15;3.72;;;24.10;99.90;;;;;;4992881;28;20027;-83
2021/06/01 10:31:06;;;;;;;5.93;3.42;;;24.30;99.90;;;;;;4992931;28;20037;-83
2021/06/01 10:33:39;;;;;;;14.25;3.70;;;24.30;99.90;;;;;;4992776;28;20041;-83
2021/06/01 10:52:09;;;;;;;6.18;3.85;;;24.40;99.90;;;;;;5012992;28;20096;-83
2021/06/01 10:54:49;;;;;;;15.10;4.93;;;24.10;99.90;;;;;;5011608;28;20065;-83
2021/06/01 10:57:16;;;;;;;9.05;3.78;;;24.30;99.90;;;;;;5011705;28;20040;-82
2021/06/01 11:02:24;;;;;;;7.25;3.58;;;24.80;99.90;;;;;;5013198;28;20026;-83
2021/06/01 11:05:09;;;;;;;8.57;4.00;;;24.90;99.90;;;;;;5012752;28;20026;-83
2021/06/01 11:07:59;;;;;;;7.97;3.92;;;24.90;99.90;;;;;;5011266;28;20403;-83
2021/06/01 11:10:45;;;;;;;13.52;4.45;;;25.10;99.90;;;;;;5011604;28;20030;-83
2021/06/01 11:13:17;;;;;;;5.18;3.38;;;24.90;99.90;;;;;;5011437;28;20081;-83
2021/06/01 11:15:52;;;;;;;5.55;3.60;;;25.00;99.90;;;;;;5011272;28;20033;-83
2021/06/01 11:18:22;;;;;;;4.35;3.58;;;25.00;99.90;;;;;;5012484;28;20053;-83
2021/06/01 11:21:09;;;;;;;11.77;3.88;;;24.90;99.90;;;;;;5011286;28;20394;-83
2021/06/01 11:24:49;;;;;;;10.05;4.63;;;24.90;99.90;;;;;;5005522;28;20034;-83
2021/06/01 11:35:28;;;;;;;6.47;3.42;;;24.30;99.90;;;;;;5012237;28;20037;-81
2021/06/01 11:43:17;;;;;;;5.78;3.53;;;23.70;99.90;;;;;;5012757;28;20018;-79
2021/06/01 11:45:42;;;;;;;7.00;3.38;;;23.50;99.90;;;;;;5012271;28;20018;-80
2021/06/01 11:50:58;;;;;;;3.92;2.53;;;23.30;99.90;;;;;;5012268;28;20594;-80
2021/06/01 11:51:11;;;;;;;3.67;2.80;;;23.10;99.90;;;;;;5011961;28;20109;-81
2021/06/01 11:53:54;;;;;;;5.10;2.80;;;23.00;99.90;;;;;;5010656;28;20022;-80
2021/06/01 12:20:56;;;;;;;5.68;3.15;;;23.80;99.90;;;;;;5007715;28;20026;-82
2021/06/01 12:23:45;;;;;;;6.63;3.15;;;23.90;99.90;;;;;;5007405;28;20030;-83
2021/06/01 12:32:33;;;;;;;5.90;2.95;;;24.80;99.90;;;;;;5003916;28;20105;-83
2021/06/01 12:43:45;;;;;;;5.75;2.58;;;26.00;89.70;;;;;;5011599;28;20168;-83
2021/06/01 13:08:49;;;;;;;7.35;2.60;;;25.50;96.20;;;;;;5007227;28;20401;-83
2021/06/01 13:14:31;;;;;;;6.72;2.63;;;25.20;98.60;;;;;;5007627;28;20037;-84
2021/06/01 13:19:50;;;;;;;5.28;2.40;;;25.20;99.90;;;;;;5007785;28;20407;-84
2021/06/01 13:22:53;;;;;;;5.07;2.55;;;25.80;99.90;;;;;;5009093;28;20022;-83
2021/06/01 13:47:17;;;;;;;7.05;2.70;;;26.30;87.30;;;;;;5014226;28;20040;-84
2021/06/01 13:52:28;;;;;;;7.13;2.05;;;26.20;93.40;;;;;;5014363;28;20109;-83
2021/06/01 14:11:27;;;;;;;3.45;2.10;;;24.90;99.90;;;;;;5014167;28;20036;-79
2021/06/01 14:28:52;;;;;;;4.38;1.88;;;25.70;95.30;;;;;;4994234;28;20037;-81
2021/06/01 14:30:31;;;;;;;6.65;2.30;;;26.50;99.90;;;;;;5008563;28;20042;-81
2021/06/01 15:31:04;;;;;;;36.13;17.48;;;23.00;99.90;;;;;;5009701;28;20056;-81
2021/06/01 15:49:28;;;;;;;6.68;3.97;;;22.40;99.90;;;;;;5008809;28;20053;-80
2021/06/01 17:03:17;;;;;;;8.88;2.63;;;20.70;99.90;;;;;;4995884;28;20040;-82
2021/06/01 17:05:50;;;;;;;8.35;2.58;;;20.70;99.90;;;;;;4995474;28;20089;-82
2021/06/01 17:11:09;;;;;;;7.72;2.65;;;20.70;99.90;;;;;;5015147;28;20445;-82
2021/06/01 17:13:40;;;;;;;3.55;2.08;;;20.50;99.90;;;;;;5015173;28;20032;-83
2021/06/01 17:16:11;;;;;;;8.25;2.58;;;20.50;99.90;;;;;;5013668;28;20084;-84
2021/06/01 17:19:20;;;;;;;3.85;3.00;;;20.30;99.90;;;;;;5014245;28;20121;-83
2021/06/01 17:34:36;;;;;;;6.80;2.40;;;20.00;99.90;;;;;;5014766;28;20092;-81
2021/06/01 17:34:59;;;;;;;4.85;2.60;;;19.90;99.90;;;;;;5003631;28;20498;-81
2021/06/01 17:37:37;;;;;;;3.92;2.53;;;20.00;99.90;;;;;;5014290;28;20041;-81
2021/06/01 17:40:04;;;;;;;7.10;2.47;;;20.10;99.90;;;;;;5013373;28;20092;-82
2021/06/01 17:42:34;;;;;;;10.95;2.83;;;20.00;99.90;;;;;;5013121;28;20022;-81
2021/06/01 17:45:03;;;;;;;6.43;2.78;;;20.20;99.90;;;;;;5014305;28;20044;-80
2021/06/01 17:47:32;;;;;;;6.00;3.10;;;20.60;99.90;;;;;;5013207;28;20122;-81
2021/06/01 17:49:59;;;;;;;9.73;3.08;;;20.70;99.90;;;;;;5029636;28;20113;-83
2021/06/01 17:52:28;;;;;;;9.90;4.15;;;20.70;99.90;;;;;;5013180;28;20603;-80
2021/06/01 17:54:55;;;;;;;6.50;4.03;;;20.30;99.90;;;;;;5012686;28;20030;-83
2021/06/01 17:57:22;;;;;;;8.10;3.20;;;20.10;99.90;;;;;;5012861;28;20026;-81
2021/06/01 17:59:48;;;;;;;5.22;3.70;;;19.90;99.90;;;;;;5012995;28;20372;-82
2021/06/01 18:02:17;;;;;;;4.53;3.33;;;19.50;99.90;;;;;;5012938;28;20029;-81
2021/06/01 18:04:45;;;;;;;7.03;3.28;;;19.30;99.90;;;;;;5013089;28;20049;-82
2021/06/01 18:07:23;;;;;;;9.20;3.80;;;19.10;99.90;;;;;;5013185;28;20022;-82
2021/06/01 18:10:25;;;;;;;8.23;3.35;;;18.90;99.90;;;;;;4993310;28;20031;-81
2021/06/01 18:35:48;;;;;;;6.10;4.15;;;18.20;99.90;;;;;;4994136;28;20041;-84
2021/06/01 19:00:16;;;;;;;;;;;17.10;99.90;;;;;;5013832;28;20521;-83
2021/06/01 19:24:38;;;;;;;8.05;3.47;;;16.20;99.90;;;;;;5012797;28;20521;-86
2021/06/01 19:51:58;;;;;;;9.43;6.07;;;15.50;99.90;;;;;;5012315;28;20517;-80
2021/06/01 19:54:27;;;;;;;10.85;6.25;;;15.40;99.90;;;;;;5012082;28;20121;-80
2021/06/01 19:56:52;;;;;;;6.85;5.40;;;15.50;99.90;;;;;;5010797;28;20116;-78
2021/06/01 19:59:19;;;;;;;8.93;6.47;;;15.30;99.90;;;;;;5010960;28;20141;-82
2021/06/01 20:01:46;;;;;;;11.77;6.53;;;15.10;99.90;;;;;;5010864;28;20029;-81
2021/06/01 20:04:11;;;;;;;11.68;7.95;;;15.10;99.90;;;;;;5010463;28;20113;-81
2021/06/01 20:06:38;;;;;;;10.38;7.13;;;15.00;99.90;;;;;;5010685;28;20109;-81
2021/06/01 20:09:05;;;;;;;15.40;9.05;;;14.80;99.90;;;;;;5011745;28;20030;-81
2021/06/01 20:11:32;;;;;;;14.77;9.57;;;14.90;99.90;;;;;;5010395;28;20477;-80
2021/06/01 20:13:58;;;;;;;15.73;9.68;;;14.60;99.90;;;;;;5010599;28;20032;-82
2021/06/01 20:16:24;;;;;;;21.67;11.52;;;14.50;99.90;;;;;;5010677;28;20033;-80
2021/06/01 20:18:52;;;;;;;23.98;12.80;;;14.30;99.90;;;;;;5012040;28;20032;-81
2021/06/01 20:21:19;;;;;;;27.13;12.85;;;14.30;99.90;;;;;;5010336;28;20394;-80
2021/06/01 20:23:45;;;;;;;19.42;14.20;;;14.10;99.90;;;;;;5011577;28;20099;-79
2021/06/01 20:26:13;;;;;;;28.42;15.68;;;14.00;99.90;;;;;;5027008;28;20030;-80
2021/06/01 20:28:46;;;;;;;20.35;15.35;;;13.90;99.90;;;;;;5011788;28;20388;-81
2021/06/01 20:31:18;;;;;;;26.17;18.75;;;13.90;99.90;;;;;;5015182;28;20083;-80
2021/06/01 20:33:44;;;;;;;25.67;17.77;;;13.90;99.90;;;;;;5015612;28;20465;-83
2021/06/01 20:36:10;;;;;;;34.90;21.63;;;13.80;99.90;;;;;;5015672;28;20030;-81
2021/06/01 20:38:36;;;;;;;39.90;23.08;;;13.80;99.90;;;;;;5014271;28;20109;-81
2021/06/01 20:41:03;;;;;;;37.60;22.27;;;13.70;99.90;;;;;;5014343;28;20454;-81